Airfield :
LOGIN :

Register | Disclaimer

   EN    FR    IT 

 










Legend :    VFR   Marginal VFR   IFR   Intensive IFR   Very Intensive IFR
Visi :
Ceiling :
>= 8 km
>= 3000ft
5 to 8 km
1000 to 3000 ft
1500m to 5 km
500 to 1000 ft
800 to 1500m
200 to 500 ft
< 800m
< 200 ft
Symbols :   Thunderstorms  Fog  Heavy snow  Heavy precipitations  Wind > 20 kt
SIGMETs :     Misc.  Thunderstorms  Icing  Turbulence  Mountain Waves  Volcanic Ashes







- Airport Elevation : 1400 ft


LSME - Luzern Emmen

CURRENT METAR :
  • 252350Z AUTO VRB02KT 9999NDV -RA SCT021 BKN035 OVC040 03/01 Q1026 RMK

EXPIRED METARs :
  • 252320Z AUTO VRB02KT 9999NDV -SHRA FEW020 BKN033 OVC041 03/01 Q1025 RMK
  • 252250Z AUTO 08005KT 9999NDV -SHRA FEW019 OVC042 04/00 Q1025 RMK
  • 252220Z AUTO 02003KT 9999NDV -SHRA SCT040 BKN047 OVC055 04/00 Q1025 RMK
  • 252150Z AUTO 04006KT 010V080 9999NDV -RA SCT028 BKN032 OVC051 04/00 Q1025 RMK
  • 252120Z AUTO VRB02KT 9999NDV ////// 05/M01 Q1025 RMK MIS

Expired Forecast.
No reported NOTAMs for that airfield.
1 SIGMET reported for the Switzerland FIR (LSAS) :
 
Severe turbulence
LSAS SIGMET 2 VALID 252235/260100 LSZH
LSAS SWITZERLAND FIR/UIR SEV TURB FCST WI N4706 E00943 - N4702 E01025 - N4633 E01032 - N4614 E01011 - N4615 E00807 - N4638 E00753 - N4706 E00943 FL140/240 WKN=



MET'MAP, your aeronautical weather chart ! - Copyright ORBIFLY December 2007 - Disclaimer

ORBIFLY MET'MAP TEAM :

Programming & Development : Alexandra Zaïnal
Concept & Development : Baudouin d'Aumeries
Co-Development & Prog : Marc-Olivier Méhu
Technical & hardware support : Manuel Goepfert

Contact : metmap@orbifly.com




SOURCES & CREDITS :

   NOAA